Time,TemperatureF,DewpointF,PressureIn,WindDirection,WindDirectionDegrees,WindSpeedMPH,WindSpeedGustMPH,Humidity,HourlyPrecipIn,Conditions,Clouds,dailyrainin,SoftwareType,DateUTC
2013-01-12 00:03:00,45.0,43.0,30.15,ENE,61,3.0,9.0,94,0.02,,,0.44,,2013-01-12 05:03:00,
2013-01-12 00:12:00,45.0,43.0,30.15,ENE,61,3.0,9.0,94,0.02,,,0.44,,2013-01-12 05:12:00,
2013-01-12 00:22:00,44.0,43.0,30.15,NNE,32,5.0,10.0,96,0.02,,,0.45,,2013-01-12 05:22:00,
2013-01-12 00:32:00,44.0,43.0,30.15,NE,46,4.0,6.0,96,0.03,,,0.46,,2013-01-12 05:32:00,
2013-01-12 00:42:00,44.0,43.0,30.15,NE,46,4.0,6.0,96,0.03,,,0.46,,2013-01-12 05:42:00,
2013-01-12 00:53:00,44.0,43.0,30.15,North,8,5.0,8.0,96,0.02,,,0.46,,2013-01-12 05:53:00,
2013-01-12 01:02:00,44.0,43.0,30.15,NE,36,6.0,9.0,96,0.03,,,0.47,,2013-01-12 06:02:00,
2013-01-12 01:12:00,44.0,43.0,30.15,NE,36,6.0,9.0,96,0.03,,,0.47,,2013-01-12 06:12:00,
2013-01-12 01:22:00,43.0,42.0,30.15,NNE,33,5.0,8.0,96,0.02,,,0.47,,2013-01-12 06:22:00,
2013-01-12 01:33:00,43.0,42.0,30.15,North,7,5.0,12.0,96,0.01,,,0.47,,2013-01-12 06:33:00,
2013-01-12 01:43:00,43.0,42.0,30.15,North,7,5.0,12.0,96,0.01,,,0.47,,2013-01-12 06:43:00,
2013-01-12 01:53:00,43.0,42.0,30.15,NNE,33,7.0,13.0,97,0.01,,,0.47,,2013-01-12 06:53:00,
2013-01-12 02:02:00,43.0,42.0,30.15,NNE,26,6.0,10.0,97,0.00,,,0.47,,2013-01-12 07:02:00,
2013-01-12 02:12:00,43.0,42.0,30.15,NNE,26,6.0,10.0,97,0.00,,,0.47,,2013-01-12 07:12:00,
2013-01-12 02:22:00,44.0,43.0,30.15,NNE,20,9.0,14.0,97,0.00,,,0.47,,2013-01-12 07:22:00,
2013-01-12 02:32:00,44.0,43.0,30.15,NNE,24,6.0,13.0,97,0.00,,,0.47,,2013-01-12 07:32:00,
2013-01-12 02:42:00,44.0,43.0,30.15,NNE,24,6.0,13.0,97,0.00,,,0.47,,2013-01-12 07:42:00,
2013-01-12 02:53:00,45.0,44.0,30.15,NNE,24,6.0,12.0,97,0.00,,,0.47,,2013-01-12 07:53:00,
2013-01-12 03:02:00,45.0,44.0,30.15,NNE,23,6.0,12.0,97,0.00,,,0.47,,2013-01-12 08:02:00,
2013-01-12 03:12:00,45.0,44.0,30.15,NNE,23,6.0,12.0,97,0.00,,,0.47,,2013-01-12 08:12:00,
2013-01-12 03:22:00,44.0,43.0,30.15,NNE,12,5.0,8.0,97,0.00,,,0.47,,2013-01-12 08:22:00,
2013-01-12 03:32:00,44.0,43.0,30.15,NNW,346,5.0,9.0,97,0.00,,,0.47,,2013-01-12 08:32:00,
2013-01-12 03:42:00,44.0,43.0,30.15,NNW,346,5.0,9.0,97,0.00,,,0.47,,2013-01-12 08:42:00,
2013-01-12 03:53:00,44.0,43.0,30.15,NNW,346,5.0,9.0,97,0.00,,,0.47,,2013-01-12 08:53:00,
2013-01-12 04:02:00,44.0,43.0,30.15,NNW,346,5.0,9.0,97,0.00,,,0.47,,2013-01-12 09:02:00,
2013-01-12 08:33:00,44.0,43.0,30.15,NE,43,7.0,10.0,97,0.00,,,0.49,,2013-01-12 13:33:00,
2013-01-12 08:43:00,44.0,43.0,30.15,NE,43,7.0,10.0,97,0.00,,,0.49,,2013-01-12 13:43:00,
2013-01-12 08:53:00,44.0,43.0,30.14,ENE,62,11.0,16.0,97,0.00,,,0.49,,2013-01-12 13:53:00,
2013-01-12 09:02:00,44.0,43.0,30.15,NE,43,12.0,16.0,97,0.00,,,0.49,,2013-01-12 14:02:00,
2013-01-12 09:12:00,44.0,43.0,30.15,NE,43,12.0,16.0,97,0.00,,,0.49,,2013-01-12 14:12:00,
2013-01-12 09:22:00,44.0,43.0,30.15,NE,37,9.0,16.0,97,0.00,,,0.49,,2013-01-12 14:22:00,
2013-01-12 09:33:00,44.0,43.0,30.15,North,11,5.0,13.0,97,0.00,,,0.49,,2013-01-12 14:33:00,
2013-01-12 09:43:00,44.0,43.0,30.15,North,11,5.0,13.0,97,0.00,,,0.49,,2013-01-12 14:43:00,
2013-01-12 09:53:00,44.0,43.0,30.14,ENE,57,8.0,17.0,97,0.00,,,0.49,,2013-01-12 14:53:00,
2013-01-12 10:03:00,44.0,43.0,30.15,NE,46,10.0,15.0,97,0.00,,,0.49,,2013-01-12 15:03:00,
2013-01-12 10:13:00,44.0,43.0,30.15,NE,46,10.0,15.0,97,0.00,,,0.49,,2013-01-12 15:13:00,
2013-01-12 10:23:00,43.0,42.0,30.15,NE,38,7.0,16.0,97,0.00,,,0.49,,2013-01-12 15:23:00,
2013-01-12 10:33:00,43.0,42.0,30.15,ENE,69,9.0,17.0,96,0.00,,,0.49,,2013-01-12 15:33:00,
2013-01-12 10:43:00,43.0,42.0,30.15,ENE,69,9.0,17.0,96,0.00,,,0.49,,2013-01-12 15:43:00,
2013-01-12 10:53:00,43.0,42.0,30.14,ENE,65,6.0,12.0,96,0.00,,,0.49,,2013-01-12 15:53:00,
2013-01-12 11:03:00,43.0,42.0,30.14,NE,40,9.0,13.0,96,0.00,,,0.49,,2013-01-12 16:03:00,
2013-01-12 11:12:00,43.0,42.0,30.14,NE,40,9.0,13.0,96,0.00,,,0.49,,2013-01-12 16:12:00,
2013-01-12 11:23:00,43.0,42.0,30.14,NE,48,6.0,10.0,96,0.00,,,0.49,,2013-01-12 16:23:00,
2013-01-12 11:33:00,43.0,42.0,30.14,ENE,58,7.0,10.0,96,0.00,,,0.49,,2013-01-12 16:33:00,
2013-01-12 11:43:00,43.0,42.0,30.14,ENE,58,7.0,10.0,96,0.00,,,0.49,,2013-01-12 16:43:00,
2013-01-12 11:53:00,43.0,42.0,30.14,NNE,24,7.0,12.0,96,0.00,,,0.49,,2013-01-12 16:53:00,
2013-01-12 12:02:00,43.0,42.0,30.14,North,353,5.0,12.0,96,0.00,,,0.49,,2013-01-12 17:02:00,
2013-01-12 12:12:00,43.0,42.0,30.14,North,353,5.0,12.0,96,0.00,,,0.49,,2013-01-12 17:12:00,
2013-01-12 12:23:00,43.0,42.0,30.14,NE,49,8.0,12.0,96,0.00,,,0.49,,2013-01-12 17:23:00,
2013-01-12 12:33:00,43.0,42.0,30.14,NNE,30,7.0,12.0,96,0.00,,,0.49,,2013-01-12 17:33:00,
2013-01-12 12:43:00,43.0,42.0,30.14,NNE,30,7.0,12.0,96,0.00,,,0.49,,2013-01-12 17:43:00,
2013-01-12 12:53:00,43.0,42.0,30.14,NE,47,8.0,12.0,96,0.00,,,0.49,,2013-01-12 17:53:00,
2013-01-12 13:03:00,43.0,42.0,30.14,NNE,31,9.0,12.0,96,0.00,,,0.49,,2013-01-12 18:03:00,
2013-01-12 13:12:00,43.0,42.0,30.14,NNE,31,9.0,12.0,96,0.00,,,0.49,,2013-01-12 18:12:00,
2013-01-12 13:23:00,43.0,42.0,30.14,ENE,59,5.0,12.0,96,0.00,,,0.49,,2013-01-12 18:23:00,
2013-01-12 13:33:00,43.0,42.0,30.14,NNE,23,5.0,10.0,96,0.00,,,0.49,,2013-01-12 18:33:00,
2013-01-12 13:43:00,43.0,42.0,30.14,NNE,23,5.0,10.0,96,0.00,,,0.49,,2013-01-12 18:43:00,
2013-01-12 13:53:00,43.0,42.0,30.14,NE,47,6.0,13.0,96,0.00,,,0.49,,2013-01-12 18:53:00,
2013-01-12 14:03:00,43.0,42.0,30.14,NE,47,6.0,13.0,96,0.00,,,0.49,,2013-01-12 19:03:00,
2013-01-12 14:12:00,43.0,42.0,30.14,NE,47,6.0,13.0,96,0.00,,,0.49,,2013-01-12 19:12:00,
2013-01-12 14:23:00,44.0,43.0,30.14,NE,45,5.0,9.0,96,0.00,,,0.49,,2013-01-12 19:23:00,
2013-01-12 14:33:00,44.0,43.0,30.14,ENE,62,6.0,9.0,96,0.00,,,0.49,,2013-01-12 19:33:00,
2013-01-12 14:43:00,44.0,43.0,30.14,ENE,62,6.0,9.0,96,0.00,,,0.49,,2013-01-12 19:43:00,
2013-01-12 14:53:00,44.0,43.0,30.14,ENE,67,7.0,12.0,95,0.00,,,0.49,,2013-01-12 19:53:00,
2013-01-12 15:03:00,44.0,43.0,30.14,NE,45,5.0,10.0,95,0.00,,,0.49,,2013-01-12 20:03:00,
2013-01-12 15:12:00,44.0,43.0,30.14,NE,45,5.0,10.0,95,0.00,,,0.49,,2013-01-12 20:12:00,
2013-01-12 15:22:00,44.0,43.0,30.14,ENE,75,3.0,10.0,95,0.00,,,0.49,,2013-01-12 20:22:00,
2013-01-12 15:33:00,44.0,43.0,30.14,East,79,3.0,9.0,95,0.00,,,0.49,,2013-01-12 20:33:00,
2013-01-12 15:43:00,44.0,43.0,30.14,East,79,3.0,9.0,95,0.00,,,0.49,,2013-01-12 20:43:00,
2013-01-12 15:53:00,44.0,43.0,30.14,East,86,6.0,9.0,95,0.00,,,0.49,,2013-01-12 20:53:00,
2013-01-12 16:03:00,44.0,43.0,30.14,NE,51,9.0,13.0,95,0.00,,,0.49,,2013-01-12 21:03:00,
2013-01-12 16:12:00,44.0,43.0,30.14,NE,51,9.0,13.0,95,0.00,,,0.49,,2013-01-12 21:12:00,
2013-01-12 16:22:00,44.0,43.0,30.14,NE,50,5.0,10.0,95,0.00,,,0.49,,2013-01-12 21:22:00,
2013-01-12 16:33:00,43.0,42.0,30.14,NNE,29,6.0,12.0,95,0.00,,,0.49,,2013-01-12 21:33:00,
2013-01-12 16:43:00,43.0,42.0,30.14,NNE,29,6.0,12.0,95,0.00,,,0.49,,2013-01-12 21:43:00,
2013-01-12 16:53:00,44.0,43.0,30.14,NE,43,3.0,8.0,96,0.00,,,0.49,,2013-01-12 21:53:00,
2013-01-12 17:03:00,43.0,42.0,30.14,NE,40,4.0,8.0,96,0.00,,,0.49,,2013-01-12 22:03:00,
2013-01-12 17:12:00,43.0,42.0,30.14,NE,40,4.0,8.0,96,0.00,,,0.49,,2013-01-12 22:12:00,
2013-01-12 17:23:00,43.0,42.0,30.14,NNE,17,6.0,9.0,96,0.00,,,0.48,,2013-01-12 22:23:00,
2013-01-12 17:33:00,43.0,42.0,30.14,NE,41,4.0,8.0,96,0.00,,,0.48,,2013-01-12 22:33:00,
2013-01-12 17:43:00,43.0,42.0,30.14,NE,41,4.0,8.0,96,0.00,,,0.48,,2013-01-12 22:43:00,
2013-01-12 17:53:00,43.0,42.0,30.16,NNE,30,7.0,9.0,96,0.00,,,0.47,,2013-01-12 22:53:00,
2013-01-12 18:03:00,43.0,42.0,30.16,NNE,30,7.0,9.0,96,0.00,,,0.47,,2013-01-12 23:03:00,
2013-01-12 18:13:00,43.0,42.0,30.16,NNE,30,7.0,9.0,96,0.00,,,0.47,,2013-01-12 23:13:00,
2013-01-12 18:23:00,43.0,42.0,30.16,NE,45,5.0,12.0,97,0.00,,,0.42,,2013-01-12 23:23:00,
2013-01-12 18:33:00,43.0,42.0,30.16,NE,54,6.0,10.0,97,0.00,,,0.41,,2013-01-12 23:33:00,
2013-01-12 18:43:00,43.0,42.0,30.16,NE,54,6.0,10.0,97,0.00,,,0.41,,2013-01-12 23:43:00,
2013-01-12 18:53:00,43.0,42.0,30.16,ENE,63,4.0,10.0,97,0.00,,,0.40,,2013-01-12 23:53:00,
2013-01-12 19:03:00,43.0,42.0,30.16,East,85,3.0,10.0,97,0.00,,,0.39,,2013-01-13 00:03:00,
2013-01-12 19:12:00,43.0,42.0,30.16,East,85,3.0,10.0,97,0.00,,,0.39,,2013-01-13 00:12:00,
2013-01-12 19:23:00,43.0,42.0,30.16,NE,35,3.0,8.0,97,0.00,,,0.37,,2013-01-13 00:23:00,
2013-01-12 19:33:00,42.0,41.0,30.16,NE,45,4.0,7.0,97,0.00,,,0.34,,2013-01-13 00:33:00,
2013-01-12 19:43:00,42.0,41.0,30.16,NE,45,4.0,7.0,97,0.00,,,0.34,,2013-01-13 00:43:00,
2013-01-12 19:53:00,42.0,41.0,30.14,NE,47,3.0,6.0,97,0.00,,,0.30,,2013-01-13 00:53:00,
2013-01-12 20:03:00,42.0,41.0,30.14,NE,37,2.0,5.0,97,0.00,,,0.24,,2013-01-13 01:03:00,
2013-01-12 20:12:00,42.0,41.0,30.14,NE,37,2.0,5.0,97,0.00,,,0.24,,2013-01-13 01:12:00,
2013-01-12 20:23:00,42.0,41.0,30.14,NNW,347,0.0,1.0,97,0.00,,,0.21,,2013-01-13 01:23:00,
2013-01-12 20:33:00,42.0,41.0,30.14,NE,39,0.0,0.0,97,0.00,,,0.20,,2013-01-13 01:33:00,
2013-01-12 20:43:00,42.0,41.0,30.14,NE,39,0.0,0.0,97,0.00,,,0.20,,2013-01-13 01:43:00,
2013-01-12 20:53:00,42.0,41.0,30.14,NNW,330,0.0,0.0,97,0.00,,,0.18,,2013-01-13 01:53:00,
2013-01-12 21:02:00,43.0,42.0,30.14,NE,46,0.0,0.0,97,0.00,,,0.17,,2013-01-13 02:02:00,
2013-01-12 21:13:00,43.0,42.0,30.14,NE,46,0.0,0.0,97,0.00,,,0.17,,2013-01-13 02:13:00,
2013-01-12 21:23:00,42.0,41.0,30.14,East,87,0.0,0.0,97,0.00,,,0.15,,2013-01-13 02:23:00,
2013-01-12 21:33:00,43.0,42.0,30.14,ENE,64,0.0,0.0,97,0.00,,,0.14,,2013-01-13 02:33:00,
2013-01-12 21:43:00,43.0,42.0,30.14,ENE,64,0.0,0.0,97,0.00,,,0.14,,2013-01-13 02:43:00,
2013-01-12 21:53:00,43.0,42.0,30.14,NE,56,0.0,0.0,97,0.00,,,0.12,,2013-01-13 02:53:00,
2013-01-12 22:03:00,43.0,42.0,30.14,ENE,64,0.0,0.0,97,0.00,,,0.11,,2013-01-13 03:03:00,
2013-01-12 22:12:00,43.0,42.0,30.14,ENE,64,0.0,0.0,97,0.00,,,0.11,,2013-01-13 03:12:00,
2013-01-12 22:22:00,43.0,42.0,30.14,ENE,57,0.0,0.0,97,0.00,,,0.09,,2013-01-13 03:22:00,
2013-01-12 22:33:00,43.0,42.0,30.14,NE,38,0.0,0.0,97,0.00,,,0.08,,2013-01-13 03:33:00,
2013-01-12 22:43:00,43.0,42.0,30.14,NE,38,0.0,0.0,97,0.00,,,0.08,,2013-01-13 03:43:00,
2013-01-12 22:53:00,43.0,42.0,30.14,ENE,57,0.0,0.0,97,0.00,,,0.06,,2013-01-13 03:53:00,
2013-01-12 23:03:00,43.0,42.0,30.14,NE,48,0.0,0.0,97,0.00,,,0.06,,2013-01-13 04:03:00,
2013-01-12 23:12:00,43.0,42.0,30.14,NE,48,0.0,0.0,97,0.00,,,0.06,,2013-01-13 04:12:00,
2013-01-12 23:22:00,42.0,41.0,30.14,ENE,74,0.0,0.0,97,0.00,,,0.06,,2013-01-13 04:22:00,
2013-01-12 23:33:00,43.0,42.0,30.14,NE,35,0.0,0.0,97,0.00,,,0.06,,2013-01-13 04:33:00,
2013-01-12 23:43:00,43.0,42.0,30.14,NE,35,0.0,0.0,97,0.00,,,0.06,,2013-01-13 04:43:00,
2013-01-12 23:53:00,43.0,42.0,30.14,East,100,0.0,0.0,97,0.00,,,0.05,,2013-01-13 04:53:00,